createdAt,value
2022-10-04T00:38:41.088Z,9.3
2022-10-04T00:48:43.753Z,9.2
2022-10-04T00:58:45.861Z,9.2
2022-10-04T01:08:47.637Z,9.1
2022-10-04T01:18:49.448Z,9.1
2022-10-04T01:28:51.901Z,9.1
2022-10-04T01:38:53.440Z,9.2
2022-10-04T02:09:00.187Z,9.4
2022-10-04T02:11:38.588Z,9.4
2022-10-04T02:29:13.960Z,9.3
2022-10-04T02:39:15.744Z,9.3
2022-10-04T02:49:18.248Z,9.4
2022-10-04T02:59:20.674Z,9.4
2022-10-04T03:09:26.219Z,9.4
2022-10-04T03:19:25.246Z,9.4
2022-10-04T03:29:27.540Z,9.4
2022-10-04T03:39:30.237Z,9.2
2022-10-04T03:49:32.685Z,9.1
2022-10-04T03:59:34.812Z,9.1
2022-10-04T04:09:37.142Z,8.9
2022-10-04T04:19:39.021Z,8.8
2022-10-04T04:29:41.725Z,8.7
2022-10-04T04:39:43.687Z,8.7
2022-10-04T04:49:46.108Z,8.5
2022-10-04T04:59:48.420Z,8.5
2022-10-04T05:09:50.766Z,8.5
2022-10-04T05:19:52.592Z,8.6
2022-10-04T05:29:54.864Z,8.6
2022-10-04T05:39:56.913Z,8.6
2022-10-04T05:49:58.959Z,8.7
2022-10-04T06:00:04.281Z,8.7
2022-10-04T06:10:03.063Z,8.7
2022-10-04T06:20:05.712Z,8.9
2022-10-04T06:30:08.234Z,9
2022-10-04T06:40:10.660Z,9
2022-10-04T06:50:13.345Z,9.3
2022-10-04T07:00:15.841Z,9.5
2022-10-04T07:20:20.171Z,10.2
2022-10-04T07:30:22.517Z,10.5
2022-10-04T07:40:25.010Z,10.8
2022-10-04T07:50:27.343Z,11.1
2022-10-04T08:00:29.572Z,11.4
2022-10-04T08:20:34.664Z,11.6
2022-10-04T08:30:36.557Z,11.8
2022-10-04T08:40:38.483Z,12.2
2022-10-04T08:50:40.707Z,12.6
2022-10-04T09:00:43.170Z,13.3
2022-10-04T09:10:45.203Z,13.7
2022-10-04T09:20:47.129Z,14
2022-10-04T09:30:49.610Z,14.7
2022-10-04T09:40:52.293Z,14.8
2022-10-04T09:50:54.960Z,15.2
2022-10-04T10:00:56.707Z,15.5
2022-10-04T10:10:59.019Z,15.7
2022-10-04T10:21:00.946Z,16.4
2022-10-04T10:31:02.983Z,16.5
2022-10-04T10:41:05.079Z,16.7
2022-10-04T11:01:09.000Z,17.1
2022-10-04T11:11:10.985Z,16.6
2022-10-04T11:21:13.037Z,17.2
2022-10-04T11:31:15.356Z,17.3
2022-10-04T11:41:17.846Z,17.7
2022-10-04T11:51:19.682Z,17.9
2022-10-04T12:01:21.783Z,18
2022-10-04T12:11:24.401Z,18.5
2022-10-04T12:21:26.268Z,18.6
2022-10-04T12:31:28.668Z,18.5
2022-10-04T12:41:30.742Z,18.4
2022-10-04T12:51:33.294Z,18.8
2022-10-04T13:01:35.959Z,19
2022-10-04T13:11:38.282Z,19.4
2022-10-04T13:21:40.006Z,19.1
2022-10-04T13:31:42.195Z,19.3
2022-10-04T13:41:44.658Z,19.8
2022-10-04T13:51:46.766Z,19.6
2022-10-04T14:01:48.475Z,19.5
2022-10-04T14:11:50.798Z,19.2
2022-10-04T14:21:53.024Z,19.7
2022-10-04T14:31:55.488Z,20.2
2022-10-04T14:41:57.502Z,18.9
2022-10-04T14:51:59.923Z,18.8
2022-10-04T15:02:01.945Z,19.3
2022-10-04T15:12:29.832Z,19.2
2022-10-04T15:22:06.740Z,19.1
2022-10-04T15:32:08.522Z,19.1
2022-10-04T15:42:10.336Z,19.2
2022-10-04T15:52:12.494Z,18.8
2022-10-04T16:02:16.026Z,18.6
2022-10-04T16:12:20.322Z,18.3
2022-10-04T16:22:19.599Z,18
2022-10-04T16:42:23.757Z,17.5
2022-10-04T16:52:26.385Z,17.2
2022-10-04T17:02:28.538Z,16.9
2022-10-04T17:12:30.521Z,16.4
2022-10-04T17:22:32.528Z,15.8
2022-10-04T17:32:34.594Z,15.5
2022-10-04T17:42:36.935Z,15.2
2022-10-04T17:52:39.344Z,14.9
2022-10-04T18:02:42.057Z,14.6
2022-10-04T18:12:44.417Z,14.2
2022-10-04T18:22:46.287Z,14
2022-10-04T18:32:48.515Z,13.7
2022-10-04T18:42:50.446Z,13.7
2022-10-04T18:52:52.600Z,13.4
2022-10-04T19:02:54.908Z,13.2
2022-10-04T19:12:56.728Z,13
2022-10-04T19:22:58.757Z,12.7
2022-10-04T19:33:00.760Z,12.7
2022-10-04T19:43:03.076Z,12.6
2022-10-04T19:53:05.164Z,12.6
2022-10-04T20:03:07.717Z,12.4
2022-10-04T20:13:10.222Z,12.4
2022-10-04T20:23:12.798Z,12.4
2022-10-04T20:33:14.785Z,12.2
2022-10-04T20:43:17.283Z,12.1
2022-10-04T20:53:19.861Z,12.1
2022-10-04T21:03:21.718Z,12.1
2022-10-04T21:13:23.496Z,12.3
2022-10-04T21:23:26.115Z,12.3
2022-10-04T21:33:28.268Z,12.1
2022-10-04T21:43:29.955Z,12
2022-10-04T21:53:32.593Z,11.8
2022-10-04T22:03:34.963Z,12.2
2022-10-04T22:13:36.933Z,12
2022-10-04T22:23:39.477Z,11.8
2022-10-04T22:33:41.541Z,11.9
2022-10-04T22:43:43.278Z,12
2022-10-04T22:53:45.837Z,11.7
2022-10-04T23:03:48.522Z,11.4
2022-10-04T23:13:50.192Z,11.5
2022-10-04T23:23:51.945Z,11.6
2022-10-04T23:33:54.187Z,11.6
2022-10-04T23:43:56.136Z,11.6
2022-10-04T23:53:57.886Z,11.6
